sensor_id;sensor_type;location;lat;lon;timestamp;temperature;humidity
15262;DHT22;7733;51.554;13.590;2023-03-25T00:01:04;9.20;99.90
15262;DHT22;7733;51.554;13.590;2023-03-25T00:03:34;9.20;99.90
15262;DHT22;7733;51.554;13.590;2023-03-25T00:06:07;9.20;99.90
15262;DHT22;7733;51.554;13.590;2023-03-25T00:08:34;9.30;99.90
15262;DHT22;7733;51.554;13.590;2023-03-25T00:11:01;9.40;99.90
15262;DHT22;7733;51.554;13.590;2023-03-25T00:13:29;9.50;99.90
15262;DHT22;7733;51.554;13.590;2023-03-25T00:15:59;9.40;99.90
15262;DHT22;7733;51.554;13.590;2023-03-25T00:18:28;9.40;99.90
15262;DHT22;7733;51.554;13.590;2023-03-25T00:21:02;9.30;99.90
15262;DHT22;7733;51.554;13.590;2023-03-25T00:23:30;9.30;99.90
15262;DHT22;7733;51.554;13.590;2023-03-25T00:25:56;9.40;99.90
15262;DHT22;7733;51.554;13.590;2023-03-25T00:28:27;9.40;99.90
15262;DHT22;7733;51.554;13.590;2023-03-25T00:31:01;9.30;99.90
15262;DHT22;7733;51.554;13.590;2023-03-25T00:33:37;9.20;99.90
15262;DHT22;7733;51.554;13.590;2023-03-25T00:36:06;9.30;99.90
15262;DHT22;7733;51.554;13.590;2023-03-25T00:38:34;9.40;99.90
15262;DHT22;7733;51.554;13.590;2023-03-25T00:41:10;9.30;99.90
15262;DHT22;7733;51.554;13.590;2023-03-25T00:43:37;9.40;99.90
15262;DHT22;7733;51.554;13.590;2023-03-25T00:46:03;9.40;99.90
15262;DHT22;7733;51.554;13.590;2023-03-25T00:48:29;9.40;99.90
15262;DHT22;7733;51.554;13.590;2023-03-25T00:50:54;9.50;99.90
15262;DHT22;7733;51.554;13.590;2023-03-25T00:53:20;9.50;99.90
15262;DHT22;7733;51.554;13.590;2023-03-25T00:55:46;9.40;99.90
15262;DHT22;7733;51.554;13.590;2023-03-25T00:58:11;9.30;99.90
15262;DHT22;7733;51.554;13.590;2023-03-25T01:00:37;9.30;99.90
15262;DHT22;7733;51.554;13.590;2023-03-25T01:03:03;9.40;99.90
15262;DHT22;7733;51.554;13.590;2023-03-25T01:05:29;9.40;99.90
15262;DHT22;7733;51.554;13.590;2023-03-25T01:07:55;9.40;99.90
15262;DHT22;7733;51.554;13.590;2023-03-25T01:10:21;9.40;99.90
15262;DHT22;7733;51.554;13.590;2023-03-25T01:12:47;9.40;99.90
15262;DHT22;7733;51.554;13.590;2023-03-25T01:15:13;9.30;99.90
15262;DHT22;7733;51.554;13.590;2023-03-25T01:17:39;9.30;99.90
15262;DHT22;7733;51.554;13.590;2023-03-25T01:20:06;9.30;99.90
15262;DHT22;7733;51.554;13.590;2023-03-25T01:22:34;9.30;99.90
15262;DHT22;7733;51.554;13.590;2023-03-25T01:25:00;9.20;99.90
15262;DHT22;7733;51.554;13.590;2023-03-25T01:27:26;9.30;99.90
15262;DHT22;7733;51.554;13.590;2023-03-25T01:29:51;9.30;99.90
15262;DHT22;7733;51.554;13.590;2023-03-25T01:32:19;9.40;99.90
15262;DHT22;7733;51.554;13.590;2023-03-25T01:34:45;9.50;99.90
15262;DHT22;7733;51.554;13.590;2023-03-25T01:37:11;9.50;99.90
15262;DHT22;7733;51.554;13.590;2023-03-25T01:39:37;9.60;99.90
15262;DHT22;7733;51.554;13.590;2023-03-25T01:42:03;9.60;99.90
15262;DHT22;7733;51.554;13.590;2023-03-25T01:46:58;9.70;99.90
15262;DHT22;7733;51.554;13.590;2023-03-25T01:49:40;9.70;99.90
15262;DHT22;7733;51.554;13.590;2023-03-25T01:52:13;9.70;99.90
15262;DHT22;7733;51.554;13.590;2023-03-25T01:54:42;9.70;99.90
15262;DHT22;7733;51.554;13.590;2023-03-25T01:57:12;9.70;99.90
15262;DHT22;7733;51.554;13.590;2023-03-25T01:59:42;9.70;99.90
15262;DHT22;7733;51.554;13.590;2023-03-25T02:02:09;9.60;99.90
15262;DHT22;7733;51.554;13.590;2023-03-25T02:04:49;9.70;99.90
15262;DHT22;7733;51.554;13.590;2023-03-25T02:07:25;9.70;99.90
15262;DHT22;7733;51.554;13.590;2023-03-25T02:09:58;9.70;99.90
15262;DHT22;7733;51.554;13.590;2023-03-25T02:12:27;9.60;99.90
15262;DHT22;7733;51.554;13.590;2023-03-25T02:14:53;9.70;99.90
15262;DHT22;7733;51.554;13.590;2023-03-25T02:17:41;9.70;99.90
15262;DHT22;7733;51.554;13.590;2023-03-25T02:20:33;9.60;99.90
15262;DHT22;7733;51.554;13.590;2023-03-25T02:23:32;9.70;99.90
15262;DHT22;7733;51.554;13.590;2023-03-25T02:26:36;9.60;99.90
15262;DHT22;7733;51.554;13.590;2023-03-25T02:37:56;9.80;99.90
15262;DHT22;7733;51.554;13.590;2023-03-25T02:43:35;9.80;99.90
15262;DHT22;7733;51.554;13.590;2023-03-25T02:46:07;9.80;99.90
15262;DHT22;7733;51.554;13.590;2023-03-25T02:48:41;10.00;99.90
15262;DHT22;7733;51.554;13.590;2023-03-25T02:51:37;9.90;99.90
15262;DHT22;7733;51.554;13.590;2023-03-25T02:54:11;9.90;99.90
15262;DHT22;7733;51.554;13.590;2023-03-25T02:56:40;9.90;99.90
15262;DHT22;7733;51.554;13.590;2023-03-25T02:59:09;10.00;99.90
15262;DHT22;7733;51.554;13.590;2023-03-25T03:01:39;10.00;99.90
15262;DHT22;7733;51.554;13.590;2023-03-25T03:04:05;9.90;99.90
15262;DHT22;7733;51.554;13.590;2023-03-25T03:06:36;10.00;99.90
15262;DHT22;7733;51.554;13.590;2023-03-25T03:12:21;10.00;99.90
15262;DHT22;7733;51.554;13.590;2023-03-25T03:15:31;9.90;99.90
15262;DHT22;7733;51.554;13.590;2023-03-25T03:21:38;10.00;99.90
15262;DHT22;7733;51.554;13.590;2023-03-25T03:24:21;10.00;99.90
15262;DHT22;7733;51.554;13.590;2023-03-25T03:27:27;9.90;99.90
15262;DHT22;7733;51.554;13.590;2023-03-25T03:33:19;10.00;99.90
15262;DHT22;7733;51.554;13.590;2023-03-25T03:35:51;10.10;99.90
15262;DHT22;7733;51.554;13.590;2023-03-25T03:38:24;10.10;99.90
15262;DHT22;7733;51.554;13.590;2023-03-25T03:40:58;10.10;99.90
15262;DHT22;7733;51.554;13.590;2023-03-25T03:43:45;10.10;99.90
15262;DHT22;7733;51.554;13.590;2023-03-25T03:46:23;10.00;99.90
15262;DHT22;7733;51.554;13.590;2023-03-25T03:48:57;10.00;99.90
15262;DHT22;7733;51.554;13.590;2023-03-25T03:51:32;10.00;99.90
15262;DHT22;7733;51.554;13.590;2023-03-25T03:56:46;9.90;99.90
15262;DHT22;7733;51.554;13.590;2023-03-25T03:59:47;9.90;99.90
15262;DHT22;7733;51.554;13.590;2023-03-25T04:02:33;9.90;99.90
15262;DHT22;7733;51.554;13.590;2023-03-25T04:05:04;10.00;99.90
15262;DHT22;7733;51.554;13.590;2023-03-25T04:07:43;9.90;99.90
15262;DHT22;7733;51.554;13.590;2023-03-25T04:10:42;9.90;99.90
15262;DHT22;7733;51.554;13.590;2023-03-25T04:13:18;9.90;99.90
15262;DHT22;7733;51.554;13.590;2023-03-25T04:15:46;9.90;99.90
15262;DHT22;7733;51.554;13.590;2023-03-25T04:18:12;9.90;99.90
15262;DHT22;7733;51.554;13.590;2023-03-25T04:20:38;9.90;99.90
15262;DHT22;7733;51.554;13.590;2023-03-25T04:23:10;9.90;99.90
15262;DHT22;7733;51.554;13.590;2023-03-25T04:25:44;9.90;99.90
15262;DHT22;7733;51.554;13.590;2023-03-25T04:28:18;9.90;99.90
15262;DHT22;7733;51.554;13.590;2023-03-25T04:30:44;9.90;99.90
15262;DHT22;7733;51.554;13.590;2023-03-25T04:33:11;9.80;99.90
15262;DHT22;7733;51.554;13.590;2023-03-25T04:35:38;9.70;99.90
15262;DHT22;7733;51.554;13.590;2023-03-25T04:38:05;9.70;99.90
15262;DHT22;7733;51.554;13.590;2023-03-25T04:40:32;9.80;99.90
15262;DHT22;7733;51.554;13.590;2023-03-25T04:42:59;9.80;99.90
15262;DHT22;7733;51.554;13.590;2023-03-25T04:45:25;9.70;99.90
15262;DHT22;7733;51.554;13.590;2023-03-25T04:47:53;9.70;99.90
15262;DHT22;7733;51.554;13.590;2023-03-25T04:50:27;9.70;99.90
15262;DHT22;7733;51.554;13.590;2023-03-25T04:52:54;9.70;99.90
15262;DHT22;7733;51.554;13.590;2023-03-25T04:55:25;9.80;99.90
15262;DHT22;7733;51.554;13.590;2023-03-25T04:57:52;9.80;99.90
15262;DHT22;7733;51.554;13.590;2023-03-25T05:00:23;9.80;99.90
15262;DHT22;7733;51.554;13.590;2023-03-25T05:02:53;9.80;99.90
15262;DHT22;7733;51.554;13.590;2023-03-25T05:05:23;9.80;99.90
15262;DHT22;7733;51.554;13.590;2023-03-25T05:07:51;9.80;99.90
15262;DHT22;7733;51.554;13.590;2023-03-25T05:10:21;9.80;99.90
15262;DHT22;7733;51.554;13.590;2023-03-25T05:12:48;9.70;99.90
15262;DHT22;7733;51.554;13.590;2023-03-25T05:15:15;9.70;99.90
15262;DHT22;7733;51.554;13.590;2023-03-25T05:17:42;9.80;99.90
15262;DHT22;7733;51.554;13.590;2023-03-25T05:20:10;9.70;99.90
15262;DHT22;7733;51.554;13.590;2023-03-25T05:22:37;9.70;99.90
15262;DHT22;7733;51.554;13.590;2023-03-25T05:25:07;9.70;99.90
15262;DHT22;7733;51.554;13.590;2023-03-25T05:27:35;9.80;99.90
15262;DHT22;7733;51.554;13.590;2023-03-25T05:30:03;9.70;99.90
15262;DHT22;7733;51.554;13.590;2023-03-25T05:32:29;9.70;99.90
15262;DHT22;7733;51.554;13.590;2023-03-25T05:34:58;9.70;99.90
15262;DHT22;7733;51.554;13.590;2023-03-25T05:37:25;9.70;99.90
15262;DHT22;7733;51.554;13.590;2023-03-25T05:39:51;9.70;99.90
15262;DHT22;7733;51.554;13.590;2023-03-25T05:42:17;9.80;99.90
15262;DHT22;7733;51.554;13.590;2023-03-25T05:44:50;9.90;99.90
15262;DHT22;7733;51.554;13.590;2023-03-25T05:47:23;9.80;99.90
15262;DHT22;7733;51.554;13.590;2023-03-25T05:49:51;9.90;99.90
15262;DHT22;7733;51.554;13.590;2023-03-25T05:52:19;9.90;99.90
15262;DHT22;7733;51.554;13.590;2023-03-25T05:54:48;10.00;99.90
15262;DHT22;7733;51.554;13.590;2023-03-25T05:57:15;10.00;99.90
15262;DHT22;7733;51.554;13.590;2023-03-25T05:59:41;10.00;99.90
15262;DHT22;7733;51.554;13.590;2023-03-25T06:02:11;10.00;99.90
15262;DHT22;7733;51.554;13.590;2023-03-25T06:04:41;10.00;99.90
15262;DHT22;7733;51.554;13.590;2023-03-25T06:07:10;10.10;99.90
15262;DHT22;7733;51.554;13.590;2023-03-25T06:09:47;10.10;99.90
15262;DHT22;7733;51.554;13.590;2023-03-25T06:12:15;10.10;99.90
15262;DHT22;7733;51.554;13.590;2023-03-25T06:14:44;10.10;99.90
15262;DHT22;7733;51.554;13.590;2023-03-25T06:17:12;10.00;99.90
15262;DHT22;7733;51.554;13.590;2023-03-25T06:19:38;10.00;99.90
15262;DHT22;7733;51.554;13.590;2023-03-25T06:22:08;10.10;99.90
15262;DHT22;7733;51.554;13.590;2023-03-25T06:24:39;10.10;99.90
15262;DHT22;7733;51.554;13.590;2023-03-25T06:27:16;10.10;99.90
15262;DHT22;7733;51.554;13.590;2023-03-25T06:29:43;10.10;99.90
15262;DHT22;7733;51.554;13.590;2023-03-25T06:32:13;10.20;99.90
15262;DHT22;7733;51.554;13.590;2023-03-25T06:34:39;10.30;99.90
15262;DHT22;7733;51.554;13.590;2023-03-25T06:37:07;10.40;99.90
15262;DHT22;7733;51.554;13.590;2023-03-25T06:39:34;10.30;99.90
15262;DHT22;7733;51.554;13.590;2023-03-25T06:42:03;10.40;99.90
15262;DHT22;7733;51.554;13.590;2023-03-25T06:44:30;10.50;99.90
15262;DHT22;7733;51.554;13.590;2023-03-25T06:46:56;10.50;99.90
15262;DHT22;7733;51.554;13.590;2023-03-25T06:49:22;10.40;99.90
15262;DHT22;7733;51.554;13.590;2023-03-25T06:51:48;10.50;99.90
15262;DHT22;7733;51.554;13.590;2023-03-25T06:54:14;10.60;99.90
15262;DHT22;7733;51.554;13.590;2023-03-25T06:56:40;10.60;99.90
15262;DHT22;7733;51.554;13.590;2023-03-25T06:59:05;10.60;99.90
15262;DHT22;7733;51.554;13.590;2023-03-25T07:01:31;10.60;99.90
15262;DHT22;7733;51.554;13.590;2023-03-25T07:03:57;10.60;99.90
15262;DHT22;7733;51.554;13.590;2023-03-25T07:06:23;10.50;99.90
15262;DHT22;7733;51.554;13.590;2023-03-25T07:08:50;10.50;99.90
15262;DHT22;7733;51.554;13.590;2023-03-25T07:11:25;10.50;99.90
15262;DHT22;7733;51.554;13.590;2023-03-25T07:13:53;10.50;99.90
15262;DHT22;7733;51.554;13.590;2023-03-25T07:16:20;10.50;99.90
15262;DHT22;7733;51.554;13.590;2023-03-25T07:18:47;10.50;99.90
15262;DHT22;7733;51.554;13.590;2023-03-25T07:21:15;10.50;99.90
15262;DHT22;7733;51.554;13.590;2023-03-25T07:23:41;10.60;99.90
15262;DHT22;7733;51.554;13.590;2023-03-25T07:26:07;10.50;99.90
15262;DHT22;7733;51.554;13.590;2023-03-25T07:28:33;10.40;99.90
15262;DHT22;7733;51.554;13.590;2023-03-25T07:30:59;10.40;99.90
15262;DHT22;7733;51.554;13.590;2023-03-25T07:33:25;10.50;99.90
15262;DHT22;7733;51.554;13.590;2023-03-25T07:35:50;10.50;99.90
15262;DHT22;7733;51.554;13.590;2023-03-25T07:38:16;10.50;99.90
15262;DHT22;7733;51.554;13.590;2023-03-25T07:40:42;10.50;99.90
15262;DHT22;7733;51.554;13.590;2023-03-25T07:43:08;10.60;99.90
15262;DHT22;7733;51.554;13.590;2023-03-25T07:45:34;10.70;99.90
15262;DHT22;7733;51.554;13.590;2023-03-25T07:48:00;10.70;99.90
15262;DHT22;7733;51.554;13.590;2023-03-25T07:50:27;10.60;99.90
15262;DHT22;7733;51.554;13.590;2023-03-25T07:52:53;10.60;99.90
15262;DHT22;7733;51.554;13.590;2023-03-25T07:55:19;10.60;99.90
15262;DHT22;7733;51.554;13.590;2023-03-25T07:57:45;10.50;99.90
15262;DHT22;7733;51.554;13.590;2023-03-25T08:00:12;10.50;99.90
15262;DHT22;7733;51.554;13.590;2023-03-25T08:02:38;10.50;99.90
15262;DHT22;7733;51.554;13.590;2023-03-25T08:05:05;10.40;99.90
15262;DHT22;7733;51.554;13.590;2023-03-25T08:07:32;10.40;99.90
15262;DHT22;7733;51.554;13.590;2023-03-25T08:09:58;10.40;99.90
15262;DHT22;7733;51.554;13.590;2023-03-25T08:12:24;10.40;99.90
15262;DHT22;7733;51.554;13.590;2023-03-25T08:14:50;10.40;99.90
15262;DHT22;7733;51.554;13.590;2023-03-25T08:17:16;10.40;99.90
15262;DHT22;7733;51.554;13.590;2023-03-25T08:19:42;10.40;99.90
15262;DHT22;7733;51.554;13.590;2023-03-25T08:22:07;10.40;99.90
15262;DHT22;7733;51.554;13.590;2023-03-25T08:24:33;10.40;99.90
15262;DHT22;7733;51.554;13.590;2023-03-25T08:26:59;10.30;99.90
15262;DHT22;7733;51.554;13.590;2023-03-25T08:29:26;10.30;99.90
15262;DHT22;7733;51.554;13.590;2023-03-25T08:31:52;10.30;99.90
15262;DHT22;7733;51.554;13.590;2023-03-25T08:34:20;10.40;99.90
15262;DHT22;7733;51.554;13.590;2023-03-25T08:36:47;10.50;99.90
15262;DHT22;7733;51.554;13.590;2023-03-25T08:39:14;10.50;99.90
15262;DHT22;7733;51.554;13.590;2023-03-25T08:41:42;10.50;99.90
15262;DHT22;7733;51.554;13.590;2023-03-25T08:44:08;10.60;99.90
15262;DHT22;7733;51.554;13.590;2023-03-25T08:46:35;10.70;99.90
15262;DHT22;7733;51.554;13.590;2023-03-25T08:49:02;10.80;99.90
15262;DHT22;7733;51.554;13.590;2023-03-25T08:51:29;10.80;99.90
15262;DHT22;7733;51.554;13.590;2023-03-25T08:53:55;10.60;99.90
15262;DHT22;7733;51.554;13.590;2023-03-25T08:56:21;10.50;99.90
15262;DHT22;7733;51.554;13.590;2023-03-25T08:58:47;10.40;99.90
15262;DHT22;7733;51.554;13.590;2023-03-25T09:01:12;10.30;99.90
15262;DHT22;7733;51.554;13.590;2023-03-25T09:03:38;10.20;99.90
15262;DHT22;7733;51.554;13.590;2023-03-25T09:06:06;10.20;99.90
15262;DHT22;7733;51.554;13.590;2023-03-25T09:08:33;10.20;99.90
15262;DHT22;7733;51.554;13.590;2023-03-25T09:11:01;10.20;99.90
15262;DHT22;7733;51.554;13.590;2023-03-25T09:13:28;10.20;99.90
15262;DHT22;7733;51.554;13.590;2023-03-25T09:15:53;10.30;99.90
15262;DHT22;7733;51.554;13.590;2023-03-25T09:18:21;10.40;99.90
15262;DHT22;7733;51.554;13.590;2023-03-25T09:20:47;10.50;99.90
15262;DHT22;7733;51.554;13.590;2023-03-25T09:23:14;10.50;99.90
15262;DHT22;7733;51.554;13.590;2023-03-25T09:25:40;10.60;99.90
15262;DHT22;7733;51.554;13.590;2023-03-25T09:28:07;10.70;99.90
15262;DHT22;7733;51.554;13.590;2023-03-25T09:30:33;11.10;99.90
15262;DHT22;7733;51.554;13.590;2023-03-25T09:32:59;11.10;99.90
15262;DHT22;7733;51.554;13.590;2023-03-25T09:35:25;11.20;99.90
15262;DHT22;7733;51.554;13.590;2023-03-25T09:37:51;11.10;99.90
15262;DHT22;7733;51.554;13.590;2023-03-25T09:40:19;11.00;99.90
15262;DHT22;7733;51.554;13.590;2023-03-25T09:45:47;10.60;99.90
15262;DHT22;7733;51.554;13.590;2023-03-25T09:51:05;10.40;99.90
15262;DHT22;7733;51.554;13.590;2023-03-25T09:56:05;10.40;99.90
15262;DHT22;7733;51.554;13.590;2023-03-25T09:58:40;10.30;99.90
15262;DHT22;7733;51.554;13.590;2023-03-25T10:01:46;10.50;99.90
15262;DHT22;7733;51.554;13.590;2023-03-25T10:04:48;10.40;99.90
15262;DHT22;7733;51.554;13.590;2023-03-25T10:15:57;10.20;99.90
15262;DHT22;7733;51.554;13.590;2023-03-25T10:19:14;10.30;99.90
15262;DHT22;7733;51.554;13.590;2023-03-25T10:24:31;10.40;99.90
15262;DHT22;7733;51.554;13.590;2023-03-25T10:27:04;10.40;99.90
15262;DHT22;7733;51.554;13.590;2023-03-25T10:29:43;10.50;99.90
15262;DHT22;7733;51.554;13.590;2023-03-25T10:32:16;10.50;99.90
15262;DHT22;7733;51.554;13.590;2023-03-25T10:35:06;10.60;99.90
15262;DHT22;7733;51.554;13.590;2023-03-25T10:37:40;10.70;99.90
15262;DHT22;7733;51.554;13.590;2023-03-25T10:45:49;11.80;99.90
15262;DHT22;7733;51.554;13.590;2023-03-25T10:48:24;11.90;99.90
15262;DHT22;7733;51.554;13.590;2023-03-25T10:51:14;11.90;99.90
15262;DHT22;7733;51.554;13.590;2023-03-25T10:53:46;12.10;99.90
15262;DHT22;7733;51.554;13.590;2023-03-25T10:56:17;11.80;99.90
15262;DHT22;7733;51.554;13.590;2023-03-25T10:58:55;12.00;99.90
15262;DHT22;7733;51.554;13.590;2023-03-25T11:01:38;12.10;99.90
15262;DHT22;7733;51.554;13.590;2023-03-25T11:04:12;12.00;99.90
15262;DHT22;7733;51.554;13.590;2023-03-25T11:06:45;11.90;99.90
15262;DHT22;7733;51.554;13.590;2023-03-25T11:09:24;12.30;99.90
15262;DHT22;7733;51.554;13.590;2023-03-25T11:11:58;12.20;99.90
15262;DHT22;7733;51.554;13.590;2023-03-25T11:14:27;12.10;99.90
15262;DHT22;7733;51.554;13.590;2023-03-25T11:16:59;12.30;99.90
15262;DHT22;7733;51.554;13.590;2023-03-25T11:19:36;12.60;99.90
15262;DHT22;7733;51.554;13.590;2023-03-25T11:22:33;13.00;99.90
15262;DHT22;7733;51.554;13.590;2023-03-25T11:25:02;13.10;99.90
15262;DHT22;7733;51.554;13.590;2023-03-25T11:27:40;13.20;99.90
15262;DHT22;7733;51.554;13.590;2023-03-25T11:30:16;13.10;99.90
15262;DHT22;7733;51.554;13.590;2023-03-25T11:32:58;12.70;99.90
15262;DHT22;7733;51.554;13.590;2023-03-25T11:35:30;12.50;99.90
15262;DHT22;7733;51.554;13.590;2023-03-25T11:38:28;12.30;99.90
15262;DHT22;7733;51.554;13.590;2023-03-25T11:40:57;12.50;99.90
15262;DHT22;7733;51.554;13.590;2023-03-25T11:43:32;12.50;99.90
15262;DHT22;7733;51.554;13.590;2023-03-25T11:46:08;12.40;99.90
15262;DHT22;7733;51.554;13.590;2023-03-25T11:48:38;12.30;99.90
15262;DHT22;7733;51.554;13.590;2023-03-25T11:51:13;12.20;99.90
15262;DHT22;7733;51.554;13.590;2023-03-25T11:53:56;12.30;99.90
15262;DHT22;7733;51.554;13.590;2023-03-25T11:56:33;12.20;99.90
15262;DHT22;7733;51.554;13.590;2023-03-25T11:59:08;12.10;99.90
15262;DHT22;7733;51.554;13.590;2023-03-25T12:01:46;11.90;99.90
15262;DHT22;7733;51.554;13.590;2023-03-25T12:04:23;11.90;99.90
15262;DHT22;7733;51.554;13.590;2023-03-25T12:09:24;11.70;99.90
15262;DHT22;7733;51.554;13.590;2023-03-25T12:29:34;12.50;99.90
15262;DHT22;7733;51.554;13.590;2023-03-25T12:38:33;13.30;99.90
15262;DHT22;7733;51.554;13.590;2023-03-25T12:41:30;13.30;99.90
15262;DHT22;7733;51.554;13.590;2023-03-25T12:58:40;13.40;99.90
15262;DHT22;7733;51.554;13.590;2023-03-25T13:06:29;13.20;99.90
15262;DHT22;7733;51.554;13.590;2023-03-25T13:09:01;13.40;99.90
15262;DHT22;7733;51.554;13.590;2023-03-25T13:11:38;13.20;99.90
15262;DHT22;7733;51.554;13.590;2023-03-25T13:14:23;13.40;99.90
15262;DHT22;7733;51.554;13.590;2023-03-25T13:16:54;13.40;99.90
15262;DHT22;7733;51.554;13.590;2023-03-25T13:19:26;13.40;99.90
15262;DHT22;7733;51.554;13.590;2023-03-25T13:21:58;13.50;99.80
15262;DHT22;7733;51.554;13.590;2023-03-25T13:24:41;13.60;99.60
15262;DHT22;7733;51.554;13.590;2023-03-25T13:27:14;13.70;99.90
15262;DHT22;7733;51.554;13.590;2023-03-25T13:29:53;13.40;99.90
15262;DHT22;7733;51.554;13.590;2023-03-25T13:32:49;13.10;99.90
15262;DHT22;7733;51.554;13.590;2023-03-25T13:38:31;13.20;99.90
15262;DHT22;7733;51.554;13.590;2023-03-25T13:41:21;13.30;99.90
15262;DHT22;7733;51.554;13.590;2023-03-25T13:44:13;13.30;99.90
15262;DHT22;7733;51.554;13.590;2023-03-25T13:46:53;13.10;99.90
15262;DHT22;7733;51.554;13.590;2023-03-25T13:49:33;13.00;99.90
15262;DHT22;7733;51.554;13.590;2023-03-25T13:52:13;12.20;99.90
15262;DHT22;7733;51.554;13.590;2023-03-25T13:54:59;12.10;99.90
15262;DHT22;7733;51.554;13.590;2023-03-25T13:58:09;11.80;99.90
15262;DHT22;7733;51.554;13.590;2023-03-25T14:09:56;12.90;99.90
15262;DHT22;7733;51.554;13.590;2023-03-25T14:12:39;12.70;99.90
15262;DHT22;7733;51.554;13.590;2023-03-25T14:15:12;12.70;99.90
15262;DHT22;7733;51.554;13.590;2023-03-25T14:17:45;12.60;99.90
15262;DHT22;7733;51.554;13.590;2023-03-25T14:20:27;12.60;99.90
15262;DHT22;7733;51.554;13.590;2023-03-25T14:23:01;12.50;99.90
15262;DHT22;7733;51.554;13.590;2023-03-25T14:25:51;12.50;99.90
15262;DHT22;7733;51.554;13.590;2023-03-25T14:28:38;12.40;99.90
15262;DHT22;7733;51.554;13.590;2023-03-25T14:34:21;9.80;99.90
15262;DHT22;7733;51.554;13.590;2023-03-25T14:42:02;9.00;99.90
15262;DHT22;7733;51.554;13.590;2023-03-25T14:44:42;8.90;99.90
15262;DHT22;7733;51.554;13.590;2023-03-25T14:49:52;8.60;99.90
15262;DHT22;7733;51.554;13.590;2023-03-25T14:52:47;8.50;99.90
15262;DHT22;7733;51.554;13.590;2023-03-25T14:55:24;8.60;99.90
15262;DHT22;7733;51.554;13.590;2023-03-25T14:58:03;8.60;99.90
15262;DHT22;7733;51.554;13.590;2023-03-25T15:00:49;8.60;99.90
15262;DHT22;7733;51.554;13.590;2023-03-25T15:03:18;8.70;99.90
15262;DHT22;7733;51.554;13.590;2023-03-25T15:05:54;8.90;99.90
15262;DHT22;7733;51.554;13.590;2023-03-25T15:08:38;8.90;99.90
15262;DHT22;7733;51.554;13.590;2023-03-25T15:11:12;9.10;99.90
15262;DHT22;7733;51.554;13.590;2023-03-25T15:13:47;9.20;99.90
15262;DHT22;7733;51.554;13.590;2023-03-25T15:20:31;9.30;99.90
15262;DHT22;7733;51.554;13.590;2023-03-25T15:25:52;9.40;99.90
15262;DHT22;7733;51.554;13.590;2023-03-25T15:35:25;10.00;99.90
15262;DHT22;7733;51.554;13.590;2023-03-25T15:44:56;9.90;99.90
15262;DHT22;7733;51.554;13.590;2023-03-25T15:47:36;9.80;99.90
15262;DHT22;7733;51.554;13.590;2023-03-25T15:56:29;10.00;99.90
15262;DHT22;7733;51.554;13.590;2023-03-25T16:01:35;10.20;99.90
15262;DHT22;7733;51.554;13.590;2023-03-25T16:04:10;10.20;99.90
15262;DHT22;7733;51.554;13.590;2023-03-25T16:06:44;10.30;99.90
15262;DHT22;7733;51.554;13.590;2023-03-25T16:09:20;10.40;99.90
15262;DHT22;7733;51.554;13.590;2023-03-25T16:11:51;10.50;99.90
15262;DHT22;7733;51.554;13.590;2023-03-25T16:14:22;10.50;99.90
15262;DHT22;7733;51.554;13.590;2023-03-25T16:16:53;10.40;99.90
15262;DHT22;7733;51.554;13.590;2023-03-25T16:22:02;10.40;99.90
15262;DHT22;7733;51.554;13.590;2023-03-25T16:24:32;10.50;99.90
15262;DHT22;7733;51.554;13.590;2023-03-25T16:27:12;10.40;99.90
15262;DHT22;7733;51.554;13.590;2023-03-25T16:29:50;10.50;99.90
15262;DHT22;7733;51.554;13.590;2023-03-25T16:32:30;10.50;99.90
15262;DHT22;7733;51.554;13.590;2023-03-25T16:34:57;10.40;99.90
15262;DHT22;7733;51.554;13.590;2023-03-25T16:37:23;10.40;99.90
15262;DHT22;7733;51.554;13.590;2023-03-25T16:39:56;10.20;99.90
15262;DHT22;7733;51.554;13.590;2023-03-25T16:42:28;10.20;99.90
15262;DHT22;7733;51.554;13.590;2023-03-25T16:45:01;10.20;99.90
15262;DHT22;7733;51.554;13.590;2023-03-25T16:47:32;10.10;99.90
15262;DHT22;7733;51.554;13.590;2023-03-25T16:50:00;10.00;99.90
15262;DHT22;7733;51.554;13.590;2023-03-25T16:52:28;10.00;99.90
15262;DHT22;7733;51.554;13.590;2023-03-25T16:57:26;9.90;99.90
15262;DHT22;7733;51.554;13.590;2023-03-25T16:59:54;9.80;99.90
15262;DHT22;7733;51.554;13.590;2023-03-25T17:02:37;9.90;99.90
15262;DHT22;7733;51.554;13.590;2023-03-25T17:05:24;9.90;99.90
15262;DHT22;7733;51.554;13.590;2023-03-25T17:08:03;9.80;99.90
15262;DHT22;7733;51.554;13.590;2023-03-25T17:13:23;9.90;99.90
15262;DHT22;7733;51.554;13.590;2023-03-25T17:15:54;9.80;99.90
15262;DHT22;7733;51.554;13.590;2023-03-25T17:18:25;9.80;99.90
15262;DHT22;7733;51.554;13.590;2023-03-25T17:20:56;9.80;99.90
15262;DHT22;7733;51.554;13.590;2023-03-25T17:26:10;9.90;99.90
15262;DHT22;7733;51.554;13.590;2023-03-25T17:31:24;9.80;99.90
15262;DHT22;7733;51.554;13.590;2023-03-25T17:36:43;9.70;99.90
15262;DHT22;7733;51.554;13.590;2023-03-25T17:39:26;9.60;99.90
15262;DHT22;7733;51.554;13.590;2023-03-25T17:44:32;9.60;99.90
15262;DHT22;7733;51.554;13.590;2023-03-25T17:46:58;9.50;99.90
15262;DHT22;7733;51.554;13.590;2023-03-25T17:49:24;9.50;99.90
15262;DHT22;7733;51.554;13.590;2023-03-25T17:51:50;9.50;99.90
15262;DHT22;7733;51.554;13.590;2023-03-25T17:54:16;9.40;99.90
15262;DHT22;7733;51.554;13.590;2023-03-25T17:56:42;9.40;99.90
15262;DHT22;7733;51.554;13.590;2023-03-25T17:59:22;9.40;99.90
15262;DHT22;7733;51.554;13.590;2023-03-25T18:01:49;9.40;99.90
15262;DHT22;7733;51.554;13.590;2023-03-25T18:04:16;9.40;99.90
15262;DHT22;7733;51.554;13.590;2023-03-25T18:06:43;9.40;99.90
15262;DHT22;7733;51.554;13.590;2023-03-25T18:09:21;9.20;99.90
15262;DHT22;7733;51.554;13.590;2023-03-25T18:11:50;9.30;99.90
15262;DHT22;7733;51.554;13.590;2023-03-25T18:14:19;9.30;99.90
15262;DHT22;7733;51.554;13.590;2023-03-25T18:16:45;9.30;99.90
15262;DHT22;7733;51.554;13.590;2023-03-25T18:19:17;9.30;99.90
15262;DHT22;7733;51.554;13.590;2023-03-25T18:21:46;9.30;99.90
15262;DHT22;7733;51.554;13.590;2023-03-25T18:24:12;9.20;99.90
15262;DHT22;7733;51.554;13.590;2023-03-25T18:26:39;9.20;99.90
15262;DHT22;7733;51.554;13.590;2023-03-25T18:29:21;9.30;99.90
15262;DHT22;7733;51.554;13.590;2023-03-25T18:31:50;9.30;99.90
15262;DHT22;7733;51.554;13.590;2023-03-25T18:34:16;9.40;99.90
15262;DHT22;7733;51.554;13.590;2023-03-25T18:36:43;9.40;99.90
15262;DHT22;7733;51.554;13.590;2023-03-25T18:39:18;9.30;99.90
15262;DHT22;7733;51.554;13.590;2023-03-25T18:41:46;9.40;99.90
15262;DHT22;7733;51.554;13.590;2023-03-25T18:44:12;9.40;99.90
15262;DHT22;7733;51.554;13.590;2023-03-25T18:46:39;9.40;99.90
15262;DHT22;7733;51.554;13.590;2023-03-25T18:49:25;9.40;99.90
15262;DHT22;7733;51.554;13.590;2023-03-25T18:51:51;9.50;99.90
15262;DHT22;7733;51.554;13.590;2023-03-25T18:54:18;9.50;99.90
15262;DHT22;7733;51.554;13.590;2023-03-25T18:56:44;9.50;99.90
15262;DHT22;7733;51.554;13.590;2023-03-25T18:59:14;9.50;99.90